sensor_id;sensor_type;location;lat;lon;timestamp;pressure;altitude;pressure_sealevel;temperature;humidity
44103;BME280;29769;42.178;24.742;2022-10-15T00:01:13;99937.59;;;11.91;100.00
44103;BME280;29769;42.178;24.742;2022-10-15T00:03:58;99936.78;;;11.89;100.00
44103;BME280;29769;42.178;24.742;2022-10-15T00:06:42;99939.41;;;11.87;100.00
44103;BME280;29769;42.178;24.742;2022-10-15T00:09:27;99933.31;;;11.85;100.00
44103;BME280;29769;42.178;24.742;2022-10-15T00:12:12;99930.69;;;11.85;100.00
44103;BME280;29769;42.178;24.742;2022-10-15T00:14:57;99935.97;;;11.85;100.00
44103;BME280;29769;42.178;24.742;2022-10-15T00:17:41;99925.41;;;11.85;100.00
44103;BME280;29769;42.178;24.742;2022-10-15T00:20:25;99925.41;;;11.85;100.00
44103;BME280;29769;42.178;24.742;2022-10-15T00:23:10;99921.84;;;11.88;100.00
44103;BME280;29769;42.178;24.742;2022-10-15T00:26:28;99919.22;;;11.88;100.00
44103;BME280;29769;42.178;24.742;2022-10-15T00:29:05;99920.97;;;11.89;100.00
44103;BME280;29769;42.178;24.742;2022-10-15T00:31:50;99925.28;;;11.91;100.00
44103;BME280;29769;42.178;24.742;2022-10-15T00:34:34;99921.69;;;11.98;100.00
44103;BME280;29769;42.178;24.742;2022-10-15T00:37:19;99923.31;;;12.04;100.00
44103;BME280;29769;42.178;24.742;2022-10-15T00:40:04;99918.03;;;12.04;100.00
44103;BME280;29769;42.178;24.742;2022-10-15T00:42:50;99918.00;;;12.07;100.00
44103;BME280;29769;42.178;24.742;2022-10-15T00:45:35;99914.41;;;12.11;100.00
44103;BME280;29769;42.178;24.742;2022-10-15T00:48:20;99913.56;;;12.09;100.00
44103;BME280;29769;42.178;24.742;2022-10-15T00:51:05;99915.28;;;12.12;100.00
44103;BME280;29769;42.178;24.742;2022-10-15T00:53:50;99907.28;;;12.16;100.00
44103;BME280;29769;42.178;24.742;2022-10-15T00:56:35;99903.78;;;12.14;100.00
44103;BME280;29769;42.178;24.742;2022-10-15T00:59:21;99902.91;;;12.14;100.00
44103;BME280;29769;42.178;24.742;2022-10-15T01:02:07;99904.81;;;12.07;100.00
44103;BME280;29769;42.178;24.742;2022-10-15T01:04:52;99907.50;;;12.04;100.00
44103;BME280;29769;42.178;24.742;2022-10-15T01:07:38;99900.50;;;12.03;100.00
44103;BME280;29769;42.178;24.742;2022-10-15T01:10:26;99903.13;;;12.03;100.00
44103;BME280;29769;42.178;24.742;2022-10-15T01:16:18;99900.66;;;11.94;100.00
44103;BME280;29769;42.178;24.742;2022-10-15T01:19:07;99905.94;;;11.92;100.00
44103;BME280;29769;42.178;24.742;2022-10-15T01:27:42;99903.47;;;11.85;100.00
44103;BME280;29769;42.178;24.742;2022-10-15T01:30:35;99901.78;;;11.81;100.00
44103;BME280;29769;42.178;24.742;2022-10-15T01:33:36;99900.03;;;11.80;100.00
44103;BME280;29769;42.178;24.742;2022-10-15T01:36:33;99904.44;;;11.78;100.00
44103;BME280;29769;42.178;24.742;2022-10-15T01:42:06;99907.97;;;11.77;100.00
44103;BME280;29769;42.178;24.742;2022-10-15T01:44:58;99907.06;;;11.78;100.00
44103;BME280;29769;42.178;24.742;2022-10-15T01:47:53;99907.03;;;11.81;100.00
44103;BME280;29769;42.178;24.742;2022-10-15T01:50:44;99906.16;;;11.80;100.00
44103;BME280;29769;42.178;24.742;2022-10-15T01:53:30;99907.94;;;11.78;100.00
44103;BME280;29769;42.178;24.742;2022-10-15T01:56:19;99902.69;;;11.77;100.00
44103;BME280;29769;42.178;24.742;2022-10-15T01:59:05;99906.28;;;11.71;100.00
44103;BME280;29769;42.178;24.742;2022-10-15T02:01:50;99909.81;;;11.72;100.00
44103;BME280;29769;42.178;24.742;2022-10-15T02:04:35;99908.13;;;11.66;100.00
44103;BME280;29769;42.178;24.742;2022-10-15T02:07:37;99909.03;;;11.64;100.00
44103;BME280;29769;42.178;24.742;2022-10-15T02:10:40;99904.69;;;11.63;100.00
44103;BME280;29769;42.178;24.742;2022-10-15T02:16:30;99903.81;;;11.62;100.00
44103;BME280;29769;42.178;24.742;2022-10-15T02:19:27;99903.81;;;11.62;100.00
44103;BME280;29769;42.178;24.742;2022-10-15T02:22:29;99904.63;;;11.64;100.00
44103;BME280;29769;42.178;24.742;2022-10-15T02:25:18;99902.88;;;11.63;100.00
44103;BME280;29769;42.178;24.742;2022-10-15T02:28:04;99903.75;;;11.64;100.00
44103;BME280;29769;42.178;24.742;2022-10-15T02:30:50;99903.72;;;11.67;100.00
44103;BME280;29769;42.178;24.742;2022-10-15T02:33:36;99884.56;;;11.57;100.00
44103;BME280;29769;42.178;24.742;2022-10-15T02:36:22;99907.25;;;11.66;100.00
44103;BME280;29769;42.178;24.742;2022-10-15T02:39:09;99913.41;;;11.66;100.00
44103;BME280;29769;42.178;24.742;2022-10-15T02:41:56;99909.88;;;11.66;100.00
44103;BME280;29769;42.178;24.742;2022-10-15T02:44:42;99909.00;;;11.65;100.00
44103;BME280;29769;42.178;24.742;2022-10-15T02:47:26;99910.75;;;11.66;100.00
44103;BME280;29769;42.178;24.742;2022-10-15T02:50:11;99898.47;;;11.67;100.00
44103;BME280;29769;42.178;24.742;2022-10-15T02:52:57;99908.13;;;11.66;100.00
44103;BME280;29769;42.178;24.742;2022-10-15T02:55:42;99901.97;;;11.66;100.00
44103;BME280;29769;42.178;24.742;2022-10-15T02:58:26;99907.31;;;11.63;100.00
44103;BME280;29769;42.178;24.742;2022-10-15T03:01:12;99901.09;;;11.67;100.00
44103;BME280;29769;42.178;24.742;2022-10-15T03:03:57;99900.19;;;11.68;100.00
44103;BME280;29769;42.178;24.742;2022-10-15T03:06:43;99909.00;;;11.67;100.00
44103;BME280;29769;42.178;24.742;2022-10-15T03:09:28;99908.13;;;11.65;100.00
44103;BME280;29769;42.178;24.742;2022-10-15T03:12:13;99908.94;;;11.70;100.00
44103;BME280;29769;42.178;24.742;2022-10-15T03:14:58;99903.69;;;11.68;100.00
44103;BME280;29769;42.178;24.742;2022-10-15T03:17:43;99905.41;;;11.71;100.00
44103;BME280;29769;42.178;24.742;2022-10-15T03:20:27;99908.94;;;11.70;100.00
44103;BME280;29769;42.178;24.742;2022-10-15T03:23:12;99914.19;;;11.73;100.00
44103;BME280;29769;42.178;24.742;2022-10-15T03:25:57;99912.41;;;11.73;100.00
44103;BME280;29769;42.178;24.742;2022-10-15T03:28:42;99911.53;;;11.76;100.00
44103;BME280;29769;42.178;24.742;2022-10-15T03:31:29;99913.22;;;11.77;100.00
44103;BME280;29769;42.178;24.742;2022-10-15T03:34:16;99905.38;;;11.75;100.00
44103;BME280;29769;42.178;24.742;2022-10-15T03:37:02;99917.59;;;11.81;100.00
44103;BME280;29769;42.178;24.742;2022-10-15T03:39:48;99912.34;;;11.78;100.00
44103;BME280;29769;42.178;24.742;2022-10-15T03:42:34;99915.84;;;11.80;100.00
44103;BME280;29769;42.178;24.742;2022-10-15T03:45:20;99920.19;;;11.82;100.00
44103;BME280;29769;42.178;24.742;2022-10-15T03:48:13;99917.53;;;11.84;100.00
44103;BME280;29769;42.178;24.742;2022-10-15T03:50:57;99917.59;;;11.81;100.00
44103;BME280;29769;42.178;24.742;2022-10-15T03:53:42;99921.94;;;11.82;100.00
44103;BME280;29769;42.178;24.742;2022-10-15T03:56:28;99914.00;;;11.83;100.00
44103;BME280;29769;42.178;24.742;2022-10-15T03:59:27;99914.03;;;11.82;100.00
44103;BME280;29769;42.178;24.742;2022-10-15T04:02:18;99920.22;;;11.81;100.00
44103;BME280;29769;42.178;24.742;2022-10-15T04:05:03;99913.28;;;11.75;100.00
44103;BME280;29769;42.178;24.742;2022-10-15T04:07:48;99916.81;;;11.74;100.00
44103;BME280;29769;42.178;24.742;2022-10-15T04:10:37;99914.16;;;11.76;100.00
44103;BME280;29769;42.178;24.742;2022-10-15T04:13:21;99915.03;;;11.75;100.00
44103;BME280;29769;42.178;24.742;2022-10-15T04:16:06;99917.72;;;11.70;100.00
44103;BME280;29769;42.178;24.742;2022-10-15T04:18:50;99922.13;;;11.70;100.00
44103;BME280;29769;42.178;24.742;2022-10-15T04:21:35;99917.72;;;11.69;100.00
44103;BME280;29769;42.178;24.742;2022-10-15T04:24:21;99918.59;;;11.69;100.00
44103;BME280;29769;42.178;24.742;2022-10-15T04:27:06;99917.78;;;11.66;100.00
44103;BME280;29769;42.178;24.742;2022-10-15T04:29:51;99909.91;;;11.64;100.00
44103;BME280;29769;42.178;24.742;2022-10-15T04:32:36;99917.78;;;11.66;100.00
44103;BME280;29769;42.178;24.742;2022-10-15T04:35:21;99909.00;;;11.67;100.00
44103;BME280;29769;42.178;24.742;2022-10-15T04:38:31;99910.78;;;11.65;100.00
44103;BME280;29769;42.178;24.742;2022-10-15T04:41:18;99911.66;;;11.64;100.00
44103;BME280;29769;42.178;24.742;2022-10-15T04:44:19;99916.03;;;11.65;100.00
44103;BME280;29769;42.178;24.742;2022-10-15T04:47:10;99925.69;;;11.66;100.00
44103;BME280;29769;42.178;24.742;2022-10-15T04:50:01;99921.25;;;11.68;100.00
44103;BME280;29769;42.178;24.742;2022-10-15T04:53:04;99924.75;;;11.68;100.00
44103;BME280;29769;42.178;24.742;2022-10-15T04:55:58;99924.75;;;11.68;100.00
44103;BME280;29769;42.178;24.742;2022-10-15T04:58:43;99923.00;;;11.69;100.00
44103;BME280;29769;42.178;24.742;2022-10-15T05:01:29;99923.00;;;11.69;100.00
44103;BME280;29769;42.178;24.742;2022-10-15T05:04:19;99926.53;;;11.68;100.00
44103;BME280;29769;42.178;24.742;2022-10-15T05:07:03;99930.03;;;11.68;100.00
44103;BME280;29769;42.178;24.742;2022-10-15T05:09:49;99925.63;;;11.69;100.00
44103;BME280;29769;42.178;24.742;2022-10-15T05:12:33;99930.00;;;11.71;100.00
44103;BME280;29769;42.178;24.742;2022-10-15T05:15:18;99930.88;;;11.73;100.00
44103;BME280;29769;42.178;24.742;2022-10-15T05:18:03;99934.38;;;11.75;100.00
44103;BME280;29769;42.178;24.742;2022-10-15T05:20:59;99940.34;;;11.85;100.00
44103;BME280;29769;42.178;24.742;2022-10-15T05:23:45;99943.81;;;11.87;100.00
44103;BME280;29769;42.178;24.742;2022-10-15T05:27:08;99947.28;;;11.90;100.00
44103;BME280;29769;42.178;24.742;2022-10-15T05:29:54;99945.44;;;11.95;100.00
44103;BME280;29769;42.178;24.742;2022-10-15T05:32:39;99946.22;;;12.00;100.00
44103;BME280;29769;42.178;24.742;2022-10-15T05:35:28;99952.31;;;12.04;100.00
44103;BME280;29769;42.178;24.742;2022-10-15T05:38:17;99954.84;;;12.12;100.00
44103;BME280;29769;42.178;24.742;2022-10-15T05:41:01;99955.59;;;12.18;100.00
44103;BME280;29769;42.178;24.742;2022-10-15T05:43:47;99952.84;;;12.24;100.00
44103;BME280;29769;42.178;24.742;2022-10-15T05:46:39;99963.31;;;12.30;100.00
44103;BME280;29769;42.178;24.742;2022-10-15T05:49:24;99962.44;;;12.30;100.00
44103;BME280;29769;42.178;24.742;2022-10-15T05:52:20;99969.47;;;12.28;100.00
44103;BME280;29769;42.178;24.742;2022-10-15T05:55:29;99977.22;;;12.37;100.00
44103;BME280;29769;42.178;24.742;2022-10-15T05:58:13;99970.81;;;12.50;100.00
44103;BME280;29769;42.178;24.742;2022-10-15T06:00:59;99979.53;;;12.55;100.00
44103;BME280;29769;42.178;24.742;2022-10-15T06:03:44;99982.97;;;12.59;100.00
44103;BME280;29769;42.178;24.742;2022-10-15T06:06:28;99980.25;;;12.63;100.00
44103;BME280;29769;42.178;24.742;2022-10-15T06:09:13;99981.03;;;12.68;100.00
44103;BME280;29769;42.178;24.742;2022-10-15T06:11:57;99977.31;;;12.78;100.00
44103;BME280;29769;42.178;24.742;2022-10-15T06:14:42;99976.44;;;12.78;100.00
44103;BME280;29769;42.178;24.742;2022-10-15T06:17:27;99980.84;;;12.79;100.00
44103;BME280;29769;42.178;24.742;2022-10-15T06:20:11;99986.81;;;12.88;100.00
44103;BME280;29769;42.178;24.742;2022-10-15T06:22:57;99992.03;;;12.91;100.00
44103;BME280;29769;42.178;24.742;2022-10-15T06:25:42;99988.38;;;12.99;100.00
44103;BME280;29769;42.178;24.742;2022-10-15T06:28:26;99993.50;;;13.06;100.00
44103;BME280;29769;42.178;24.742;2022-10-15T06:31:11;99994.28;;;13.10;100.00
44103;BME280;29769;42.178;24.742;2022-10-15T06:33:56;99995.75;;;13.26;100.00
44103;BME280;29769;42.178;24.742;2022-10-15T06:36:40;99996.34;;;13.39;100.00
44103;BME280;29769;42.178;24.742;2022-10-15T06:39:25;99993.34;;;13.54;100.00
44103;BME280;29769;42.178;24.742;2022-10-15T06:42:09;99997.47;;;13.67;100.00
44103;BME280;29769;42.178;24.742;2022-10-15T06:44:57;99999.16;;;13.69;100.00
44103;BME280;29769;42.178;24.742;2022-10-15T06:47:41;100000.41;;;13.92;100.00
44103;BME280;29769;42.178;24.742;2022-10-15T06:50:25;100000.63;;;14.18;100.00
44103;BME280;29769;42.178;24.742;2022-10-15T06:53:10;100008.78;;;14.46;100.00
44103;BME280;29769;42.178;24.742;2022-10-15T06:55:57;99999.69;;;14.56;100.00
44103;BME280;29769;42.178;24.742;2022-10-15T06:58:42;100000.44;;;14.93;100.00
44103;BME280;29769;42.178;24.742;2022-10-15T07:01:27;100003.63;;;15.04;100.00
44103;BME280;29769;42.178;24.742;2022-10-15T07:04:12;100005.34;;;15.36;100.00
44103;BME280;29769;42.178;24.742;2022-10-15T07:06:56;99990.94;;;15.45;100.00
44103;BME280;29769;42.178;24.742;2022-10-15T07:09:41;100001.03;;;15.63;100.00
44103;BME280;29769;42.178;24.742;2022-10-15T07:12:26;100008.69;;;15.72;100.00
44103;BME280;29769;42.178;24.742;2022-10-15T07:15:10;100000.44;;;16.09;100.00
44103;BME280;29769;42.178;24.742;2022-10-15T07:17:55;100008.91;;;16.46;100.00
44103;BME280;29769;42.178;24.742;2022-10-15T07:20:46;100004.66;;;16.41;100.00
44103;BME280;29769;42.178;24.742;2022-10-15T07:23:31;100001.50;;;16.81;100.00
44103;BME280;29769;42.178;24.742;2022-10-15T07:26:16;100000.50;;;16.85;100.00
44103;BME280;29769;42.178;24.742;2022-10-15T07:29:01;99995.56;;;17.22;100.00
44103;BME280;29769;42.178;24.742;2022-10-15T07:31:46;99998.00;;;17.52;100.00
44103;BME280;29769;42.178;24.742;2022-10-15T07:34:33;100000.88;;;17.69;100.00
44103;BME280;29769;42.178;24.742;2022-10-15T07:37:18;100007.75;;;18.18;100.00
44103;BME280;29769;42.178;24.742;2022-10-15T07:40:02;100009.00;;;18.93;100.00
44103;BME280;29769;42.178;24.742;2022-10-15T07:42:51;100006.91;;;19.00;100.00
44103;BME280;29769;42.178;24.742;2022-10-15T07:45:37;100003.38;;;19.38;100.00
44103;BME280;29769;42.178;24.742;2022-10-15T07:48:22;100001.50;;;19.96;100.00
44103;BME280;29769;42.178;24.742;2022-10-15T07:51:09;100001.00;;;20.60;100.00
44103;BME280;29769;42.178;24.742;2022-10-15T07:53:54;100002.69;;;20.96;95.96
44103;BME280;29769;42.178;24.742;2022-10-15T07:56:39;99998.00;;;21.34;93.30
44103;BME280;29769;42.178;24.742;2022-10-15T07:59:23;100000.94;;;21.93;81.66
44103;BME280;29769;42.178;24.742;2022-10-15T08:02:15;99988.44;;;21.92;78.84
44103;BME280;29769;42.178;24.742;2022-10-15T08:05:00;99994.41;;;21.66;79.07
44103;BME280;29769;42.178;24.742;2022-10-15T08:07:44;99991.22;;;22.06;77.40
44103;BME280;29769;42.178;24.742;2022-10-15T08:10:30;99993.53;;;22.12;75.65
44103;BME280;29769;42.178;24.742;2022-10-15T08:13:14;99993.13;;;22.04;75.73
44103;BME280;29769;42.178;24.742;2022-10-15T08:16:02;99986.94;;;22.63;70.89
44103;BME280;29769;42.178;24.742;2022-10-15T08:18:47;99989.69;;;22.78;72.14
44103;BME280;29769;42.178;24.742;2022-10-15T08:21:32;99986.28;;;23.18;68.25
44103;BME280;29769;42.178;24.742;2022-10-15T08:24:16;99982.13;;;23.13;65.61
44103;BME280;29769;42.178;24.742;2022-10-15T08:27:00;99989.06;;;23.02;67.34
44103;BME280;29769;42.178;24.742;2022-10-15T08:29:45;99976.13;;;22.65;67.49
44103;BME280;29769;42.178;24.742;2022-10-15T08:32:30;99981.56;;;23.36;65.08
44103;BME280;29769;42.178;24.742;2022-10-15T08:35:14;99980.13;;;23.73;64.44
44103;BME280;29769;42.178;24.742;2022-10-15T08:37:59;99978.19;;;23.89;59.60
44103;BME280;29769;42.178;24.742;2022-10-15T08:40:53;99980.91;;;24.16;59.43
44103;BME280;29769;42.178;24.742;2022-10-15T08:43:39;99981.41;;;24.87;56.62
44103;BME280;29769;42.178;24.742;2022-10-15T08:46:38;99993.91;;;24.88;55.80
44103;BME280;29769;42.178;24.742;2022-10-15T08:49:39;99983.00;;;25.65;50.93
44103;BME280;29769;42.178;24.742;2022-10-15T08:55:13;99993.25;;;25.10;49.77
44103;BME280;29769;42.178;24.742;2022-10-15T08:58:03;100005.00;;;24.57;47.71
44103;BME280;29769;42.178;24.742;2022-10-15T09:01:03;100006.78;;;24.83;46.50
44103;BME280;29769;42.178;24.742;2022-10-15T09:03:51;99998.53;;;25.86;46.62
44103;BME280;29769;42.178;24.742;2022-10-15T09:06:39;100007.44;;;24.99;47.42
44103;BME280;29769;42.178;24.742;2022-10-15T09:09:30;99997.94;;;24.29;50.63
44103;BME280;29769;42.178;24.742;2022-10-15T09:15:14;99999.50;;;26.21;45.93
44103;BME280;29769;42.178;24.742;2022-10-15T09:18:00;99996.91;;;27.13;44.42
44103;BME280;29769;42.178;24.742;2022-10-15T09:20:50;99993.69;;;28.08;42.47
44103;BME280;29769;42.178;24.742;2022-10-15T09:23:36;99993.97;;;27.27;43.68
44103;BME280;29769;42.178;24.742;2022-10-15T09:26:33;99994.88;;;28.38;41.42
44103;BME280;29769;42.178;24.742;2022-10-15T09:29:28;99985.84;;;27.94;42.56
44103;BME280;29769;42.178;24.742;2022-10-15T09:43:35;99985.25;;;27.02;40.16
44103;BME280;29769;42.178;24.742;2022-10-15T09:46:20;99992.09;;;25.88;42.50
44103;BME280;29769;42.178;24.742;2022-10-15T09:49:06;99992.69;;;25.43;42.38
44103;BME280;29769;42.178;24.742;2022-10-15T09:52:03;99999.00;;;24.66;44.02
44103;BME280;29769;42.178;24.742;2022-10-15T09:54:56;99990.56;;;22.62;47.98
44103;BME280;29769;42.178;24.742;2022-10-15T09:57:46;99996.66;;;21.89;50.73
44103;BME280;29769;42.178;24.742;2022-10-15T10:00:52;99989.81;;;22.60;49.40
44103;BME280;29769;42.178;24.742;2022-10-15T10:03:37;99988.09;;;22.89;47.87
44103;BME280;29769;42.178;24.742;2022-10-15T10:06:21;99987.66;;;22.81;48.41
44103;BME280;29769;42.178;24.742;2022-10-15T10:09:11;99994.25;;;22.46;48.57
44103;BME280;29769;42.178;24.742;2022-10-15T10:11:59;99979.03;;;22.76;48.07
44103;BME280;29769;42.178;24.742;2022-10-15T10:18:03;99990.59;;;25.84;39.13
44103;BME280;29769;42.178;24.742;2022-10-15T10:20:55;99974.69;;;27.76;35.68
44103;BME280;29769;42.178;24.742;2022-10-15T10:23:42;99972.94;;;29.75;31.58
44103;BME280;29769;42.178;24.742;2022-10-15T10:26:26;99964.44;;;30.95;29.66
44103;BME280;29769;42.178;24.742;2022-10-15T10:29:12;99963.28;;;31.81;28.57
44103;BME280;29769;42.178;24.742;2022-10-15T10:32:08;99968.91;;;32.77;26.65
44103;BME280;29769;42.178;24.742;2022-10-15T10:34:53;99955.22;;;34.30;25.17
44103;BME280;29769;42.178;24.742;2022-10-15T10:37:41;99958.19;;;34.03;25.00
44103;BME280;29769;42.178;24.742;2022-10-15T10:40:27;99950.84;;;34.70;24.09
44103;BME280;29769;42.178;24.742;2022-10-15T10:43:20;99947.91;;;34.71;23.39
44103;BME280;29769;42.178;24.742;2022-10-15T10:49:03;99939.28;;;34.10;24.32
44103;BME280;29769;42.178;24.742;2022-10-15T10:51:48;99929.38;;;34.01;24.95
44103;BME280;29769;42.178;24.742;2022-10-15T10:54:33;99921.94;;;35.16;23.49
44103;BME280;29769;42.178;24.742;2022-10-15T10:57:18;99931.09;;;36.77;21.69
44103;BME280;29769;42.178;24.742;2022-10-15T11:00:14;99928.25;;;37.08;20.80
44103;BME280;29769;42.178;24.742;2022-10-15T11:03:05;99923.06;;;37.42;20.36
44103;BME280;29769;42.178;24.742;2022-10-15T11:05:51;99923.72;;;38.10;19.50
44103;BME280;29769;42.178;24.742;2022-10-15T11:14:23;99921.13;;;34.75;22.55
44103;BME280;29769;42.178;24.742;2022-10-15T11:20:05;99928.69;;;35.83;20.80
44103;BME280;29769;42.178;24.742;2022-10-15T11:25:54;99912.88;;;34.59;21.95
44103;BME280;29769;42.178;24.742;2022-10-15T11:28:50;99905.56;;;34.75;21.91
44103;BME280;29769;42.178;24.742;2022-10-15T11:34:29;99901.91;;;36.24;21.09
44103;BME280;29769;42.178;24.742;2022-10-15T11:54:26;99898.50;;;32.90;23.53
44103;BME280;29769;42.178;24.742;2022-10-15T11:57:15;99898.56;;;32.55;24.17
44103;BME280;29769;42.178;24.742;2022-10-15T12:00:11;99893.44;;;33.63;22.95
44103;BME280;29769;42.178;24.742;2022-10-15T12:03:04;99895.22;;;33.38;23.42
44103;BME280;29769;42.178;24.742;2022-10-15T12:05:52;99893.69;;;33.94;22.95
44103;BME280;29769;42.178;24.742;2022-10-15T12:08:38;99894.25;;;33.98;23.23
44103;BME280;29769;42.178;24.742;2022-10-15T12:11:26;99895.78;;;35.05;21.98
44103;BME280;29769;42.178;24.742;2022-10-15T12:14:18;99889.75;;;35.96;21.09
44103;BME280;29769;42.178;24.742;2022-10-15T12:20:00;99893.47;;;37.89;19.11
44103;BME280;29769;42.178;24.742;2022-10-15T12:23:00;99895.56;;;38.93;18.92
44103;BME280;29769;42.178;24.742;2022-10-15T12:25:45;99893.81;;;39.54;18.04
44103;BME280;29769;42.178;24.742;2022-10-15T12:28:30;99888.16;;;38.65;18.64
44103;BME280;29769;42.178;24.742;2022-10-15T12:31:16;99894.09;;;35.51;20.75
44103;BME280;29769;42.178;24.742;2022-10-15T12:34:03;99898.69;;;33.15;22.93
44103;BME280;29769;42.178;24.742;2022-10-15T15:37:37;99905.03;;;19.49;49.88
44103;BME280;29769;42.178;24.742;2022-10-15T15:40:22;99897.88;;;19.31;50.45
44103;BME280;29769;42.178;24.742;2022-10-15T15:43:07;99906.63;;;19.16;51.40
44103;BME280;29769;42.178;24.742;2022-10-15T15:45:51;99903.75;;;19.02;52.09
44103;BME280;29769;42.178;24.742;2022-10-15T15:48:36;99911.34;;;18.91;52.74
44103;BME280;29769;42.178;24.742;2022-10-15T15:51:24;99913.09;;;18.72;53.66
44103;BME280;29769;42.178;24.742;2022-10-15T15:54:10;99913.53;;;18.62;53.81
44103;BME280;29769;42.178;24.742;2022-10-15T15:56:54;99920.25;;;18.51;54.69
44103;BME280;29769;42.178;24.742;2022-10-15T15:59:39;99926.97;;;18.39;55.08
44103;BME280;29769;42.178;24.742;2022-10-15T16:02:23;99927.44;;;18.29;55.66
44103;BME280;29769;42.178;24.742;2022-10-15T16:05:10;99943.59;;;18.24;56.41
44103;BME280;29769;42.178;24.742;2022-10-15T16:07:55;99954.31;;;18.22;57.29
44103;BME280;29769;42.178;24.742;2022-10-15T16:10:40;99961.72;;;17.94;57.64
44103;BME280;29769;42.178;24.742;2022-10-15T16:13:24;99959.75;;;17.77;58.44
44103;BME280;29769;42.178;24.742;2022-10-15T16:16:09;99962.25;;;17.59;58.30
44103;BME280;29769;42.178;24.742;2022-10-15T16:18:54;99969.78;;;17.48;58.87
44103;BME280;29769;42.178;24.742;2022-10-15T16:21:38;99968.63;;;17.08;58.78
44103;BME280;29769;42.178;24.742;2022-10-15T16:24:23;99996.31;;;17.03;59.39
44103;BME280;29769;42.178;24.742;2022-10-15T16:27:07;100002.75;;;16.96;59.60
44103;BME280;29769;42.178;24.742;2022-10-15T16:29:52;100004.84;;;16.87;60.10
44103;BME280;29769;42.178;24.742;2022-10-15T16:32:36;100014.75;;;16.82;60.19
44103;BME280;29769;42.178;24.742;2022-10-15T16:35:21;100016.06;;;16.71;59.94
44103;BME280;29769;42.178;24.742;2022-10-15T16:38:06;100020.91;;;16.58;60.41
44103;BME280;29769;42.178;24.742;2022-10-15T16:40:50;100027.50;;;16.46;61.30
44103;BME280;29769;42.178;24.742;2022-10-15T16:43:35;100026.63;;;16.46;61.25
44103;BME280;29769;42.178;24.742;2022-10-15T16:46:20;100032.41;;;16.32;62.00
44103;BME280;29769;42.178;24.742;2022-10-15T16:49:05;100041.88;;;16.13;62.97
44103;BME280;29769;42.178;24.742;2022-10-15T16:51:49;100039.00;;;15.93;64.20
44103;BME280;29769;42.178;24.742;2022-10-15T16:54:34;100041.16;;;15.80;64.72
44103;BME280;29769;42.178;24.742;2022-10-15T16:57:19;100051.25;;;15.68;65.77
44103;BME280;29769;42.178;24.742;2022-10-15T17:00:03;100048.22;;;15.52;66.78
44103;BME280;29769;42.178;24.742;2022-10-15T17:02:48;100054.69;;;15.40;67.54
44103;BME280;29769;42.178;24.742;2022-10-15T17:05:33;100057.88;;;15.22;68.55
44103;BME280;29769;42.178;24.742;2022-10-15T17:08:18;100063.50;;;15.11;69.28
44103;BME280;29769;42.178;24.742;2022-10-15T17:11:02;100065.44;;;15.05;70.14
44103;BME280;29769;42.178;24.742;2022-10-15T17:13:47;100079.00;;;14.94;70.76
44103;BME280;29769;42.178;24.742;2022-10-15T17:16:36;100078.50;;;14.80;72.03
44103;BME280;29769;42.178;24.742;2022-10-15T17:19:22;100084.16;;;14.65;73.51
44103;BME280;29769;42.178;24.742;2022-10-15T17:22:08;100081.78;;;14.54;74.47
44103;BME280;29769;42.178;24.742;2022-10-15T17:24:53;100083.72;;;14.48;75.23
44103;BME280;29769;42.178;24.742;2022-10-15T17:27:37;100095.31;;;14.44;75.81
44103;BME280;29769;42.178;24.742;2022-10-15T17:30:21;100101.63;;;14.37;75.91
44103;BME280;29769;42.178;24.742;2022-10-15T17:33:06;100108.72;;;14.36;75.93
44103;BME280;29769;42.178;24.742;2022-10-15T17:35:51;100107.84;;;14.34;76.42
44103;BME280;29769;42.178;24.742;2022-10-15T17:38:35;100113.19;;;14.31;76.62
44103;BME280;29769;42.178;24.742;2022-10-15T17:41:21;100115.00;;;14.31;76.61
44103;BME280;29769;42.178;24.742;2022-10-15T17:44:05;100127.47;;;14.25;77.21
44103;BME280;29769;42.178;24.742;2022-10-15T17:46:50;100131.13;;;14.20;77.63
44103;BME280;29769;42.178;24.742;2022-10-15T17:49:37;100133.84;;;14.17;77.92
44103;BME280;29769;42.178;24.742;2022-10-15T17:52:22;100138.31;;;14.13;78.22
44103;BME280;29769;42.178;24.742;2022-10-15T17:55:07;100140.94;;;14.15;78.18
44103;BME280;29769;42.178;24.742;2022-10-15T17:57:52;100138.25;;;14.16;78.10
44103;BME280;29769;42.178;24.742;2022-10-15T18:00:37;100141.78;;;14.17;77.81
44103;BME280;29769;42.178;24.742;2022-10-15T18:03:22;100154.13;;;14.16;78.20
44103;BME280;29769;42.178;24.742;2022-10-15T18:06:08;100151.38;;;14.21;78.00
44103;BME280;29769;42.178;24.742;2022-10-15T18:08:53;100152.22;;;14.23;78.12
44103;BME280;29769;42.178;24.742;2022-10-15T18:11:37;100149.50;;;14.26;77.61
44103;BME280;29769;42.178;24.742;2022-10-15T18:14:22;100144.06;;;14.32;76.75
44103;BME280;29769;42.178;24.742;2022-10-15T18:17:07;100152.72;;;14.40;76.43
44103;BME280;29769;42.178;24.742;2022-10-15T18:19:51;100149.81;;;14.52;75.59
44103;BME280;29769;42.178;24.742;2022-10-15T18:22:36;100153.97;;;14.62;74.36
44103;BME280;29769;42.178;24.742;2022-10-15T18:25:21;100155.47;;;14.73;73.32
44103;BME280;29769;42.178;24.742;2022-10-15T18:28:06;100157.00;;;14.81;72.48
44103;BME280;29769;42.178;24.742;2022-10-15T18:30:51;100157.72;;;14.88;72.09
44103;BME280;29769;42.178;24.742;2022-10-15T18:33:36;100158.59;;;14.90;72.17
44103;BME280;29769;42.178;24.742;2022-10-15T18:36:24;100153.28;;;14.90;71.63
44103;BME280;29769;42.178;24.742;2022-10-15T18:39:09;100159.47;;;14.89;71.71